Cades, SC (29518)

5:55 PM EDT on July 30, 2016 (GMT -0400)
Williamsburg County | | Change Station
Active Advisory: Heat Advisory Active Notice: Record Report

Elev 66 ft 33.72 °N, 79.86 °W | Updated 20 minutes ago

Clear
Clear
97 °F
Feels Like 101 °F
N
8
Wind Variable Wind from SSW

Today
High -- | Low -- °F
--% Chance of Precip.
Yesterday
High -- | Low -- °F
Precip. -- in
Pressure 29.92 in
Visibility 10.0 miles
Clouds Clear
Heat Index 101 °F
Dew Point 66 °F
Humidity 37%
Rainfall 0.00 in
Snow Depth Not available.
6:29 AM 8:20 PM
Waning Crescent, 11% visible
METAR KCKI 302135Z AUTO 20007KT 10SM CLR 36/19 A2992 RMK AO2 LTG DSNT N
Pressure 29.92 in
Visibility 10.0 miles
Clouds Clear
Heat Index 101 °F
Dew Point 66 °F
Humidity 37%
Rainfall 0.00 in
Snow Depth Not available.
6:29 AM 8:20 PM
Waning Crescent, 11% visible
METAR KCKI 302135Z AUTO 20007KT 10SM CLR 36/19 A2992 RMK AO2 LTG DSNT N

10-Day Weather Forecast

Almanac

Astronomy

Jul. 30, 2016 Rise Set
Actual Time
Civil Twilight
Nautical Twilight
Astronomical Twilight
Moon
Length of Visible Light
Length of Day
Tomorrow will be .
, % of the Moon is Illuminated

Today's Extremes

State Highs State Lows

Community

WunderPhotos

Upload Photos

1,928,657 photos uploaded!

WunderBlog® & News

Nearby

Air Quality

  Air Quality AQ Index Pollutant
Not available.

Snow Depth

Station Depth Elevation

Earthquake Activity

City Distance Mag. Time & Date
Minimum magnitude displayed is 2.5.

Coastal Water Temperatures

Place Temperature

Stations

Nearby Weather Stations

Station Location Temp. Windchill Dew Point Humidity Wind Precip. Elev Updated Type
                   

Watches & Warnings

Heat Advisory
Issued: 12:29 PM EDT Jul. 30, 2016 – National Weather Service

... Heat advisory remains in effect until 8 PM EDT this evening...

* heat index values... up to 109 due to temperatures in the mid
90s... and dewpoints in the lower 70s.

* Timing... the highest sustained heat index values will occur in
the mid to late afternoon hours.

* Impacts... the combination of hot temperatures and high
humidity will create a situation in which heat illnesses are
possible. If you suspect someone having a heat stroke... call
911 immediately.

Precautionary/preparedness actions...

A heat advisory means that a period of hot temperatures is
expected. The combination of hot temperatures and high humidity
will create a situation in which heat illnesses are possible. To
reduce the risk of heat illness during outdoor work the
occupational safety and health administration recommends
scheduling frequent rest breaks in shaded or air conditioned
environments.



Rgz